Time;durP1;ratioP1;P1;durP2;ratioP2;P2;SDS_P1;SDS_P2;PMS_P1;PMS_P2;Temp;Humidity;BMP_temperature;BMP_pressure;BME280_temperature;BME280_humidity;BME280_pressure;Samples;Min_cycle;Max_cycle;Signal;HPM_P1;HPM_P2
2022/08/17 00:00:51;;;;;;;5.90;4.10;;;21.80;99.90;;;;;;5014167;28;20426;-70
2022/08/17 00:03:21;;;;;;;5.03;4.20;;;21.80;99.90;;;;;;5014345;28;20473;-71
2022/08/17 00:06:11;;;;;;;7.10;4.63;;;21.80;99.90;;;;;;5013885;28;20418;-71
2022/08/17 00:08:39;;;;;;;4.27;3.87;;;21.80;99.90;;;;;;5013200;28;20455;-71
2022/08/17 00:11:07;;;;;;;4.70;3.87;;;21.80;99.90;;;;;;5013979;28;20964;-71
2022/08/17 00:13:42;;;;;;;3.93;3.60;;;21.80;99.90;;;;;;5012934;28;20449;-71
2022/08/17 00:16:17;;;;;;;4.93;4.43;;;21.80;99.90;;;;;;5013492;28;20813;-71
2022/08/17 00:18:44;;;;;;;5.53;4.50;;;21.80;99.90;;;;;;5014111;28;20775;-71
2022/08/17 00:21:12;;;;;;;4.03;3.70;;;21.90;99.90;;;;;;5013995;28;20403;-71
2022/08/17 00:23:40;;;;;;;4.20;3.57;;;21.90;99.90;;;;;;5013738;28;20417;-71
2022/08/17 00:26:06;;;;;;;5.20;4.07;;;21.90;99.90;;;;;;5013360;28;20490;-71
2022/08/17 00:28:32;;;;;;;6.03;3.97;;;21.80;99.90;;;;;;5012141;28;20450;-71
2022/08/17 00:30:58;;;;;;;5.30;4.57;;;21.80;99.90;;;;;;5012310;28;20247;-71
2022/08/17 00:33:27;;;;;;;4.60;4.20;;;21.70;99.90;;;;;;5013345;28;20541;-71
2022/08/17 00:35:54;;;;;;;8.10;6.13;;;21.70;99.90;;;;;;5011875;28;20638;-71
2022/08/17 00:38:21;;;;;;;5.60;4.50;;;21.70;99.90;;;;;;5013416;28;20426;-71
2022/08/17 00:40:59;;;;;;;4.70;4.30;;;21.60;99.90;;;;;;5013643;28;20995;-71
2022/08/17 00:43:35;;;;;;;6.30;4.73;;;21.60;99.90;;;;;;5013506;28;20941;-71
2022/08/17 00:46:06;;;;;;;6.00;5.00;;;21.60;99.90;;;;;;5012869;28;20602;-71
2022/08/17 00:48:32;;;;;;;5.97;4.40;;;21.60;99.90;;;;;;5013112;28;20816;-71
2022/08/17 00:51:16;;;;;;;7.17;3.83;;;21.60;99.90;;;;;;5013068;28;20431;-71
2022/08/17 00:54:00;;;;;;;4.87;4.37;;;21.60;99.90;;;;;;5011703;28;20486;-71
2022/08/17 00:56:31;;;;;;;4.30;3.90;;;21.60;99.90;;;;;;5012841;28;20403;-71
2022/08/17 00:58:58;;;;;;;4.77;4.27;;;21.60;99.90;;;;;;5013009;28;20411;-71
2022/08/17 01:01:25;;;;;;;5.07;4.50;;;21.60;99.90;;;;;;5012808;28;20435;-71
2022/08/17 01:03:53;;;;;;;4.07;3.77;;;21.60;99.90;;;;;;5012952;28;20418;-71
2022/08/17 01:06:21;;;;;;;6.80;4.30;;;21.60;99.90;;;;;;5012296;28;20415;-71
2022/08/17 01:08:48;;;;;;;6.27;4.30;;;21.50;99.90;;;;;;5012747;28;20540;-71
2022/08/17 01:11:13;;;;;;;4.47;4.07;;;21.50;99.90;;;;;;5012513;28;20441;-71
2022/08/17 01:13:41;;;;;;;6.27;4.80;;;21.40;99.90;;;;;;5013028;28;20408;-71
2022/08/17 01:16:19;;;;;;;4.73;4.30;;;21.40;99.90;;;;;;5012284;28;20792;-71
2022/08/17 01:18:48;;;;;;;4.73;3.97;;;21.30;99.90;;;;;;5012602;28;20502;-71
2022/08/17 01:21:38;;;;;;;5.30;4.80;;;21.20;99.90;;;;;;5012489;28;20451;-71
2022/08/17 01:24:03;;;;;;;5.07;4.57;;;21.10;99.90;;;;;;5011079;28;20412;-71
2022/08/17 01:26:31;;;;;;;6.10;5.10;;;21.10;99.90;;;;;;5010781;28;20951;-71
2022/08/17 01:28:58;;;;;;;5.73;5.23;;;21.00;99.90;;;;;;5012473;28;20195;-71
2022/08/17 01:31:37;;;;;;;7.20;5.10;;;20.90;99.90;;;;;;5012307;28;20441;-71
2022/08/17 01:34:08;;;;;;;4.57;4.17;;;20.80;99.90;;;;;;5012142;28;20895;-71
2022/08/17 01:36:35;;;;;;;5.23;4.73;;;20.80;99.90;;;;;;5012218;28;20774;-71
2022/08/17 01:39:02;;;;;;;6.47;4.47;;;20.70;99.90;;;;;;5012250;28;20954;-71
2022/08/17 01:41:27;;;;;;;5.77;5.17;;;20.70;99.90;;;;;;5012357;28;20434;-71
2022/08/17 01:43:57;;;;;;;6.40;4.40;;;20.70;99.90;;;;;;5012184;28;20502;-71
2022/08/17 01:46:27;;;;;;;5.37;4.83;;;20.70;99.90;;;;;;5011998;28;20168;-71
2022/08/17 01:48:55;;;;;;;5.33;4.53;;;20.70;99.90;;;;;;5011706;28;20867;-71
2022/08/17 01:51:21;;;;;;;5.17;4.07;;;20.70;99.90;;;;;;5012052;28;20454;-71
2022/08/17 01:53:51;;;;;;;7.77;4.90;;;20.70;99.90;;;;;;5012145;28;20469;-71
2022/08/17 01:56:20;;;;;;;4.97;4.50;;;20.70;99.90;;;;;;5011828;28;20392;-71
2022/08/17 01:58:45;;;;;;;7.07;5.20;;;20.70;99.90;;;;;;5010669;28;20422;-71
2022/08/17 02:01:13;;;;;;;5.60;4.70;;;20.70;99.90;;;;;;5011966;28;20391;-71
2022/08/17 02:03:39;;;;;;;5.57;5.07;;;20.70;99.90;;;;;;5010635;28;20172;-71
2022/08/17 02:06:06;;;;;;;5.37;4.43;;;20.60;99.90;;;;;;5011467;28;20454;-72
2022/08/17 02:08:34;;;;;;;7.77;4.60;;;20.60;99.90;;;;;;5011904;28;20939;-71
2022/08/17 02:11:04;;;;;;;5.40;4.90;;;20.50;99.90;;;;;;5011848;28;20797;-71
2022/08/17 02:13:32;;;;;;;8.33;4.70;;;20.50;99.90;;;;;;5011960;28;20403;-71
2022/08/17 02:15:58;;;;;;;5.63;4.83;;;20.50;99.90;;;;;;5017754;28;20414;-71
2022/08/17 02:18:24;;;;;;;6.93;5.40;;;20.50;99.90;;;;;;5017069;28;20986;-71
2022/08/17 02:20:51;;;;;;;5.50;5.00;;;20.40;99.90;;;;;;5018311;28;20787;-71
2022/08/17 02:23:18;;;;;;;6.00;4.47;;;20.40;99.90;;;;;;5018281;28;20427;-71
2022/08/17 02:25:47;;;;;;;5.53;4.90;;;20.30;99.90;;;;;;5016844;28;20411;-71
2022/08/17 02:28:13;;;;;;;5.60;4.83;;;20.30;99.90;;;;;;5016952;28;20508;-71
2022/08/17 02:30:39;;;;;;;6.20;5.40;;;20.30;99.90;;;;;;5018252;28;20406;-71
2022/08/17 02:33:07;;;;;;;7.20;5.00;;;20.30;99.90;;;;;;5018126;28;20450;-71
2022/08/17 02:35:36;;;;;;;6.57;5.13;;;20.40;99.90;;;;;;5018007;28;20410;-71
2022/08/17 02:38:03;;;;;;;7.80;5.17;;;20.40;99.90;;;;;;5018194;28;20411;-71
2022/08/17 02:40:29;;;;;;;4.83;4.43;;;20.40;99.90;;;;;;5018224;28;20908;-71
2022/08/17 02:42:55;;;;;;;6.90;5.53;;;20.40;99.90;;;;;;5018030;28;20433;-71
2022/08/17 02:45:23;;;;;;;5.70;4.60;;;20.50;99.90;;;;;;5018029;28;20630;-71
2022/08/17 02:47:49;;;;;;;4.93;4.40;;;20.50;99.90;;;;;;5017958;28;20259;-71
2022/08/17 02:50:16;;;;;;;8.40;5.90;;;20.50;99.90;;;;;;5017963;28;20731;-71
2022/08/17 02:52:44;;;;;;;7.57;5.40;;;20.60;99.90;;;;;;5018102;28;20415;-71
2022/08/17 02:55:25;;;;;;;8.40;5.73;;;20.50;99.90;;;;;;5017766;28;20967;-71
2022/08/17 02:57:52;;;;;;;6.17;5.50;;;20.50;99.90;;;;;;5018121;28;20441;-72
2022/08/17 03:00:39;;;;;;;5.90;5.00;;;20.40;99.90;;;;;;5018048;28;20765;-71
2022/08/17 03:03:09;;;;;;;13.03;9.53;;;20.30;99.90;;;;;;5018097;28;20534;-71
2022/08/17 03:05:37;;;;;;;8.80;5.97;;;20.30;99.90;;;;;;5017791;28;20405;-71
2022/08/17 03:08:04;;;;;;;7.67;6.87;;;20.20;99.90;;;;;;5017843;28;20987;-71
2022/08/17 03:10:30;;;;;;;8.67;5.83;;;20.10;99.90;;;;;;5017983;28;20438;-71
2022/08/17 03:12:56;;;;;;;6.77;6.10;;;20.10;99.90;;;;;;5017947;28;20830;-71
2022/08/17 03:15:26;;;;;;;5.13;4.60;;;20.10;99.90;;;;;;5017613;28;20251;-71
2022/08/17 03:17:53;;;;;;;5.53;4.90;;;20.00;99.90;;;;;;5017849;28;20544;-71
2022/08/17 03:20:20;;;;;;;6.93;5.10;;;20.00;99.90;;;;;;5017900;28;20449;-71
2022/08/17 03:22:51;;;;;;;5.13;4.73;;;20.00;99.90;;;;;;5017842;28;20430;-71
2022/08/17 03:25:21;;;;;;;4.73;4.00;;;20.00;99.90;;;;;;5016969;28;20481;-71
2022/08/17 03:27:47;;;;;;;6.83;4.83;;;19.90;99.90;;;;;;5014009;28;20410;-71
2022/08/17 03:30:13;;;;;;;5.90;4.50;;;19.90;99.90;;;;;;5014698;28;21000;-71
2022/08/17 03:32:44;;;;;;;4.90;4.40;;;19.80;99.90;;;;;;5014636;28;20192;-71
2022/08/17 03:35:12;;;;;;;5.23;4.80;;;19.80;99.90;;;;;;5014262;28;20588;-71
2022/08/17 03:37:39;;;;;;;5.60;4.80;;;19.70;99.90;;;;;;5014625;28;20769;-71
2022/08/17 03:40:06;;;;;;;5.77;4.83;;;19.70;99.90;;;;;;5014515;28;20457;-71
2022/08/17 03:42:33;;;;;;;8.20;5.90;;;19.70;99.90;;;;;;5014362;28;20423;-71
2022/08/17 03:45:00;;;;;;;6.57;5.10;;;19.70;99.90;;;;;;5014119;28;20441;-71
2022/08/17 03:58:23;;;;;;;7.47;6.60;;;19.70;99.90;;;;;;5014214;28;20442;-71
2022/08/17 04:00:50;;;;;;;5.40;4.90;;;19.70;99.90;;;;;;5014114;28;20407;-71
2022/08/17 04:03:15;;;;;;;9.60;6.40;;;19.70;99.90;;;;;;5014042;28;20192;-71
2022/08/17 04:05:41;;;;;;;6.33;5.50;;;19.80;99.90;;;;;;5013906;28;20478;-71
2022/08/17 04:08:07;;;;;;;9.10;5.17;;;19.80;99.90;;;;;;5014011;28;20443;-71
2022/08/17 04:10:35;;;;;;;6.17;5.57;;;19.80;99.90;;;;;;5013930;28;20399;-71
2022/08/17 04:13:01;;;;;;;23.90;6.07;;;19.90;99.90;;;;;;5013929;28;20462;-71
2022/08/17 04:15:27;;;;;;;4.67;4.27;;;19.90;99.90;;;;;;5013620;28;20411;-71
2022/08/17 04:17:54;;;;;;;5.40;4.70;;;20.00;99.90;;;;;;5012542;28;20164;-71
2022/08/17 04:20:21;;;;;;;7.00;5.80;;;20.00;99.90;;;;;;5013921;28;20399;-72
2022/08/17 04:23:03;;;;;;;6.13;5.13;;;19.90;99.90;;;;;;5013711;28;20483;-71
2022/08/17 04:25:32;;;;;;;6.17;4.57;;;20.00;99.90;;;;;;5012295;28;20430;-71
2022/08/17 04:27:58;;;;;;;6.40;5.20;;;20.00;99.90;;;;;;5013668;28;20442;-71
2022/08/17 04:30:25;;;;;;;5.87;5.13;;;20.00;99.90;;;;;;5013637;28;20783;-71
2022/08/17 04:32:59;;;;;;;5.53;4.80;;;20.10;99.90;;;;;;5013419;28;20423;-71
2022/08/17 04:35:31;;;;;;;6.30;5.27;;;20.10;99.90;;;;;;5013239;28;20431;-71
2022/08/17 04:37:57;;;;;;;10.87;7.43;;;20.00;99.90;;;;;;5013132;28;20446;-71
2022/08/17 04:43:27;;;;;;;4.63;4.03;;;20.10;99.90;;;;;;5010795;28;20283;-71
2022/08/17 04:45:58;;;;;;;6.03;3.90;;;20.20;99.90;;;;;;5012595;28;20407;-71
2022/08/17 04:48:33;;;;;;;6.40;4.60;;;20.30;99.90;;;;;;5011938;28;20827;-71
2022/08/17 04:50:59;;;;;;;4.50;4.10;;;20.30;99.90;;;;;;5013078;28;20506;-71
2022/08/17 04:53:25;;;;;;;5.03;4.20;;;20.40;99.90;;;;;;5013052;28;20419;-71
2022/08/17 04:55:52;;;;;;;4.13;3.40;;;20.40;99.90;;;;;;5011459;28;20407;-71
2022/08/17 04:58:18;;;;;;;4.03;3.70;;;20.50;99.90;;;;;;5013022;28;20415;-71
2022/08/17 05:00:44;;;;;;;7.57;5.47;;;20.50;99.90;;;;;;5013098;28;20490;-71
2022/08/17 05:03:09;;;;;;;4.73;4.07;;;20.50;99.90;;;;;;5012931;28;20423;-71
2022/08/17 05:05:38;;;;;;;4.13;2.83;;;20.50;99.90;;;;;;5012703;28;20267;-71
2022/08/17 05:08:05;;;;;;;3.40;3.10;;;20.50;99.90;;;;;;5012842;28;20199;-71
2022/08/17 05:10:35;;;;;;;3.50;3.20;;;20.60;99.90;;;;;;5011583;28;20482;-71
2022/08/17 05:13:05;;;;;;;4.47;4.03;;;20.60;99.90;;;;;;5012658;28;20419;-71
2022/08/17 05:15:33;;;;;;;3.60;3.33;;;20.60;99.90;;;;;;5012485;28;20457;-71
2022/08/17 05:17:59;;;;;;;4.53;3.87;;;20.70;99.90;;;;;;5011488;28;20477;-71
2022/08/17 05:20:25;;;;;;;4.50;3.40;;;20.70;99.90;;;;;;5012697;28;20407;-71
2022/08/17 05:22:53;;;;;;;4.37;3.83;;;20.80;99.90;;;;;;5012477;28;20260;-71
2022/08/17 05:25:27;;;;;;;3.40;3.10;;;20.90;99.90;;;;;;5012269;28;20450;-71
2022/08/17 05:27:54;;;;;;;3.40;3.10;;;20.90;99.90;;;;;;5012442;28;20445;-71
2022/08/17 05:30:21;;;;;;;3.03;2.67;;;21.00;99.90;;;;;;5012531;28;20490;-71
2022/08/17 05:33:04;;;;;;;4.43;3.10;;;21.10;99.90;;;;;;5012447;28;20470;-71
2022/08/17 05:35:32;;;;;;;5.60;3.87;;;21.20;99.90;;;;;;5012130;28;20399;-71
2022/08/17 05:37:59;;;;;;;3.60;3.30;;;21.30;99.90;;;;;;5012323;28;20403;-71
2022/08/17 05:40:25;;;;;;;3.23;2.93;;;21.40;99.90;;;;;;5012437;28;20427;-71
2022/08/17 05:43:02;;;;;;;3.93;3.40;;;21.50;99.90;;;;;;5010907;28;20433;-71
2022/08/17 05:45:30;;;;;;;4.07;3.53;;;21.50;99.90;;;;;;5012016;28;20402;-71
2022/08/17 05:47:56;;;;;;;3.80;3.40;;;21.50;99.90;;;;;;5012204;28;20490;-71
2022/08/17 05:50:27;;;;;;;4.90;4.03;;;21.60;99.90;;;;;;5011392;28;20499;-71
2022/08/17 05:53:09;;;;;;;4.93;3.67;;;21.70;99.90;;;;;;5012138;28;20184;-71
2022/08/17 05:55:43;;;;;;;4.47;4.07;;;21.80;99.90;;;;;;5010562;28;20936;-71
2022/08/17 05:58:18;;;;;;;5.40;3.60;;;22.00;99.90;;;;;;5012097;28;20498;-71
2022/08/17 06:01:07;;;;;;;5.87;3.97;;;22.10;99.90;;;;;;5011741;28;20432;-71
2022/08/17 06:03:54;;;;;;;5.50;4.23;;;22.20;99.90;;;;;;5012001;28;20410;-71
2022/08/17 06:06:47;;;;;;;3.83;3.53;;;22.40;99.90;;;;;;5010555;28;20506;-71
2022/08/17 06:09:51;;;;;;;4.97;4.40;;;22.50;99.90;;;;;;5011924;28;20454;-71
2022/08/17 06:12:22;;;;;;;5.50;3.73;;;22.60;99.90;;;;;;5011103;28;20887;-71
2022/08/17 06:15:02;;;;;;;6.50;3.80;;;22.70;99.90;;;;;;5010472;28;21110;-71
2022/08/17 06:17:28;;;;;;;3.97;3.40;;;22.70;99.90;;;;;;5011790;28;20430;-71
2022/08/17 06:20:02;;;;;;;5.20;4.33;;;22.80;99.90;;;;;;5010604;28;20423;-71
2022/08/17 06:22:40;;;;;;;4.67;3.67;;;22.90;99.90;;;;;;5011778;28;20773;-71
2022/08/17 06:25:33;;;;;;;6.70;3.03;;;23.00;99.90;;;;;;5011687;28;20922;-71
2022/08/17 06:28:07;;;;;;;5.60;5.10;;;23.10;99.90;;;;;;5011093;28;20781;-71
2022/08/17 06:30:48;;;;;;;4.50;4.10;;;23.20;99.90;;;;;;5011719;28;20411;-71
2022/08/17 06:33:30;;;;;;;6.17;3.50;;;23.30;99.90;;;;;;5011777;28;20422;-71
2022/08/17 06:36:06;;;;;;;4.90;4.33;;;23.30;99.90;;;;;;5011446;28;20399;-71
2022/08/17 06:38:58;;;;;;;3.80;3.40;;;23.30;99.90;;;;;;5011603;28;20398;-72
2022/08/17 06:41:59;;;;;;;5.37;4.27;;;23.50;99.90;;;;;;5011574;28;20411;-71
2022/08/17 06:44:45;;;;;;;4.80;3.67;;;23.60;99.90;;;;;;5010557;28;20418;-71
2022/08/17 06:47:17;;;;;;;4.67;4.27;;;23.80;99.90;;;;;;5011679;28;20897;-71
2022/08/17 06:49:51;;;;;;;4.97;3.70;;;24.00;99.90;;;;;;5011565;28;20486;-71
2022/08/17 06:52:23;;;;;;;4.87;4.40;;;24.10;99.90;;;;;;5011502;28;20520;-71
2022/08/17 06:55:12;;;;;;;6.13;3.77;;;24.30;99.90;;;;;;5011293;28;20403;-71
2022/08/17 06:57:44;;;;;;;5.33;4.27;;;24.50;99.90;;;;;;5011199;28;20821;-72
2022/08/17 07:00:19;;;;;;;4.27;3.87;;;24.70;99.90;;;;;;5010934;28;20412;-71
2022/08/17 07:02:44;;;;;;;4.60;4.20;;;24.90;99.90;;;;;;5015326;28;20446;-71
2022/08/17 07:05:13;;;;;;;5.27;3.37;;;25.00;99.90;;;;;;5015211;28;20438;-73
2022/08/17 07:08:01;;;;;;;5.93;4.70;;;25.10;99.90;;;;;;5015364;28;20215;-73
2022/08/17 07:10:36;;;;;;;5.60;3.80;;;25.20;99.90;;;;;;5015360;28;20502;-71
2022/08/17 07:13:24;;;;;;;9.00;4.57;;;25.40;99.90;;;;;;5015269;28;20851;-71
2022/08/17 07:15:53;;;;;;;5.27;4.43;;;25.50;99.90;;;;;;5014862;28;20410;-71
2022/08/17 07:18:19;;;;;;;15.73;5.50;;;25.60;99.90;;;;;;5015031;28;20430;-71
2022/08/17 07:20:49;;;;;;;4.53;4.13;;;25.80;99.90;;;;;;5015086;28;20399;-71
2022/08/17 07:23:55;;;;;;;4.40;3.80;;;25.90;99.90;;;;;;5014676;28;20445;-71
2022/08/17 07:26:23;;;;;;;5.90;4.43;;;26.10;99.90;;;;;;5014876;28;20442;-71
2022/08/17 07:28:49;;;;;;;5.07;4.57;;;26.10;99.90;;;;;;5014449;28;20987;-71
2022/08/17 07:31:16;;;;;;;5.50;4.23;;;26.10;99.90;;;;;;5015473;28;20404;-71
2022/08/17 07:33:58;;;;;;;5.10;4.67;;;26.10;99.90;;;;;;5013585;28;20403;-71
2022/08/17 07:36:25;;;;;;;5.33;4.73;;;26.10;99.90;;;;;;5014645;28;20399;-71
2022/08/17 07:38:56;;;;;;;6.00;5.00;;;26.10;99.90;;;;;;5014883;28;20754;-70
2022/08/17 07:41:22;;;;;;;5.30;4.80;;;26.00;99.90;;;;;;5015212;28;20490;-71
2022/08/17 07:43:51;;;;;;;5.17;4.67;;;26.00;99.90;;;;;;5015054;28;20575;-71
2022/08/17 07:49:30;;;;;;;8.03;6.00;;;25.90;99.90;;;;;;5014481;28;20449;-71
2022/08/17 07:51:59;;;;;;;5.60;5.00;;;26.00;99.90;;;;;;5014467;28;20439;-71
2022/08/17 07:54:40;;;;;;;6.00;5.40;;;26.00;99.90;;;;;;5013055;28;20411;-72
2022/08/17 07:57:12;;;;;;;6.47;4.20;;;26.10;99.90;;;;;;5014567;28;20402;-71
2022/08/17 07:59:40;;;;;;;5.03;4.50;;;26.10;99.90;;;;;;5021642;28;20426;-71
2022/08/17 08:02:31;;;;;;;6.80;4.90;;;26.10;99.90;;;;;;5032746;28;20811;-71
2022/08/17 08:05:03;;;;;;;5.60;5.10;;;26.00;99.90;;;;;;5033687;28;20410;-71
2022/08/17 08:07:38;;;;;;;5.70;5.13;;;25.90;99.90;;;;;;5034167;28;20406;-71
2022/08/17 08:10:03;;;;;;;7.77;5.40;;;25.80;99.90;;;;;;5033781;28;20865;-71
2022/08/17 08:12:34;;;;;;;5.23;4.27;;;25.70;99.90;;;;;;5033175;28;20423;-70
2022/08/17 08:15:08;;;;;;;5.07;4.30;;;25.60;99.90;;;;;;5033646;28;20576;-71
2022/08/17 08:17:44;;;;;;;5.87;5.27;;;25.40;99.90;;;;;;5033954;28;20394;-71
2022/08/17 08:20:10;;;;;;;6.13;5.13;;;25.30;99.90;;;;;;5032605;28;20413;-70
2022/08/17 08:22:44;;;;;;;6.77;5.53;;;25.20;99.90;;;;;;5033581;28;20428;-70
2022/08/17 08:25:44;;;;;;;5.37;4.73;;;25.00;99.90;;;;;;5033430;28;20582;-70
2022/08/17 08:28:29;;;;;;;6.63;5.07;;;24.90;99.90;;;;;;5025194;28;20468;-70
2022/08/17 08:31:17;;;;;;;6.33;5.50;;;24.90;99.90;;;;;;5033517;28;20410;-70
2022/08/17 08:33:55;;;;;;;7.93;6.20;;;24.60;99.90;;;;;;5033527;28;20471;-70
2022/08/17 08:36:41;;;;;;;7.37;5.20;;;24.50;99.90;;;;;;5033348;28;20406;-70
2022/08/17 08:39:20;;;;;;;9.57;6.50;;;24.40;99.90;;;;;;5033388;28;20410;-71
2022/08/17 08:42:11;;;;;;;8.20;5.57;;;24.30;99.90;;;;;;5033361;28;20456;-70
2022/08/17 08:44:57;;;;;;;6.27;5.63;;;24.20;99.90;;;;;;5033174;28;20403;-70
2022/08/17 08:47:50;;;;;;;9.60;5.87;;;24.20;99.90;;;;;;5033331;28;20406;-71
2022/08/17 08:51:07;;;;;;;7.87;5.93;;;24.20;99.90;;;;;;5033158;28;20771;-70
2022/08/17 08:53:54;;;;;;;6.63;5.57;;;24.20;99.90;;;;;;5032219;28;20411;-71
2022/08/17 08:56:31;;;;;;;6.80;6.10;;;24.20;99.90;;;;;;5032926;28;20441;-70
2022/08/17 08:59:26;;;;;;;7.60;6.47;;;24.20;99.90;;;;;;5031858;28;20519;-70
2022/08/17 09:02:12;;;;;;;6.90;5.50;;;24.30;99.90;;;;;;5032429;28;20434;-70
2022/08/17 09:04:47;;;;;;;6.90;5.80;;;24.30;99.90;;;;;;5032701;28;20414;-70
2022/08/17 09:07:45;;;;;;;7.93;7.07;;;24.40;99.90;;;;;;5032737;28;20437;-70
2022/08/17 09:10:24;;;;;;;7.33;6.60;;;24.60;99.90;;;;;;5032845;28;20438;-70
2022/08/17 09:12:58;;;;;;;8.13;6.20;;;24.80;99.90;;;;;;5032894;28;20426;-71
2022/08/17 09:15:27;;;;;;;6.70;6.00;;;25.00;99.90;;;;;;5032504;28;20405;-70
2022/08/17 09:18:12;;;;;;;6.73;6.03;;;25.20;99.90;;;;;;5032657;28;20775;-71
2022/08/17 09:20:45;;;;;;;7.37;6.63;;;25.30;99.90;;;;;;5032790;28;20398;-71
2022/08/17 09:23:45;;;;;;;7.60;5.80;;;25.50;99.90;;;;;;5032326;28;20468;-71
2022/08/17 09:26:20;;;;;;;5.80;5.20;;;25.40;99.90;;;;;;5031243;28;20398;-71
2022/08/17 09:28:50;;;;;;;8.20;5.50;;;25.40;99.90;;;;;;5032799;28;20451;-72
2022/08/17 09:31:22;;;;;;;7.07;5.50;;;25.30;99.90;;;;;;5032737;28;20394;-72
2022/08/17 09:33:50;;;;;;;8.20;6.33;;;25.20;99.90;;;;;;5032765;28;20406;-70
2022/08/17 09:36:28;;;;;;;8.27;5.53;;;25.10;99.90;;;;;;5032206;28;20402;-71
2022/08/17 09:38:57;;;;;;;8.10;5.40;;;25.00;99.90;;;;;;5032366;28;20481;-70
2022/08/17 09:41:34;;;;;;;7.10;6.40;;;24.80;99.90;;;;;;5032327;28;20798;-71
2022/08/17 09:44:34;;;;;;;7.10;6.40;;;24.70;99.90;;;;;;5032126;28;20414;-71
2022/08/17 09:47:00;;;;;;;6.30;5.70;;;24.60;99.90;;;;;;5032551;28;20438;-71
2022/08/17 09:49:50;;;;;;;7.93;6.20;;;24.50;99.90;;;;;;5032673;28;20481;-71
2022/08/17 09:52:22;;;;;;;7.73;6.30;;;24.30;99.90;;;;;;5032699;28;20210;-71
2022/08/17 09:54:50;;;;;;;6.40;5.80;;;24.20;99.90;;;;;;5032819;28;20757;-71
2022/08/17 09:57:22;;;;;;;7.10;5.97;;;23.90;99.90;;;;;;5033497;28;20417;-71
2022/08/17 10:00:09;;;;;;;6.13;5.50;;;23.90;99.90;;;;;;5033028;28;20903;-71
2022/08/17 10:02:57;;;;;;;9.07;5.43;;;23.80;99.90;;;;;;5032720;28;20414;-69
2022/08/17 10:05:56;;;;;;;9.17;5.67;;;23.70;99.90;;;;;;5032342;28;20403;-71
2022/08/17 10:08:28;;;;;;;8.30;5.80;;;23.70;99.90;;;;;;5032090;28;20453;-69
2022/08/17 10:12:14;;;;;;;7.87;5.93;;;23.60;99.90;;;;;;5030435;28;20780;-71
2022/08/17 10:14:23;;;;;;;10.63;5.90;;;23.50;99.90;;;;;;5032156;28;20418;-70
2022/08/17 10:16:58;;;;;;;7.33;5.73;;;23.50;99.90;;;;;;5031334;28;20429;-70
2022/08/17 10:19:37;;;;;;;7.77;7.00;;;23.50;99.90;;;;;;5032327;28;20413;-70
2022/08/17 10:27:58;;;;;;;8.43;7.13;;;23.40;99.90;;;;;;5032267;28;20402;-70
2022/08/17 10:30:27;;;;;;;6.73;5.93;;;23.50;99.90;;;;;;5032908;28;20900;-71
2022/08/17 10:33:05;;;;;;;6.90;6.20;;;23.60;99.90;;;;;;5032239;28;20434;-72
2022/08/17 10:35:40;;;;;;;15.33;7.03;;;23.80;99.90;;;;;;5033011;28;20429;-70
2022/08/17 10:38:28;;;;;;;7.77;7.07;;;24.00;99.90;;;;;;5036178;28;20394;-71
2022/08/17 10:41:19;;;;;;;11.80;7.70;;;24.20;99.90;;;;;;5034962;28;20406;-71
2022/08/17 10:44:23;;;;;;;9.50;7.00;;;24.40;99.90;;;;;;5036067;28;20903;-72
2022/08/17 10:46:55;;;;;;;13.43;7.40;;;24.60;99.90;;;;;;5036037;28;20390;-70
2022/08/17 10:49:22;;;;;;;6.77;6.10;;;24.80;99.90;;;;;;5035891;28;20452;-71
2022/08/17 10:51:59;;;;;;;8.80;7.17;;;25.10;99.90;;;;;;5034523;28;20446;-70
2022/08/17 10:54:46;;;;;;;10.03;7.77;;;25.20;99.90;;;;;;5035438;28;20460;-70
2022/08/17 10:57:30;;;;;;;11.70;8.30;;;25.50;99.90;;;;;;5035877;28;20932;-70
2022/08/17 10:59:57;;;;;;;11.43;7.20;;;26.10;99.90;;;;;;5035948;28;20950;-71
2022/08/17 11:02:48;;;;;;;8.37;7.57;;;26.70;99.90;;;;;;5035974;28;20422;-70
2022/08/17 11:05:39;;;;;;;13.30;9.13;;;27.70;99.90;;;;;;5035684;28;20493;-70
2022/08/17 11:08:17;;;;;;;10.20;9.17;;;29.00;99.90;;;;;;5034257;28;20403;-71
2022/08/17 11:10:49;;;;;;;9.70;8.13;;;30.40;99.90;;;;;;5035006;28;20437;-72
2022/08/17 11:13:54;;;;;;;8.40;7.57;;;32.00;99.90;;;;;;5034748;28;21020;-73
2022/08/17 11:16:41;;;;;;;8.90;7.70;;;34.10;98.90;;;;;;5033697;28;20451;-72
2022/08/17 11:19:27;;;;;;;9.87;8.80;;;36.30;83.10;;;;;;5034730;28;20460;-72
2022/08/17 11:21:57;;;;;;;9.23;8.40;;;38.00;66.90;;;;;;5034478;28;20923;-72
2022/08/17 11:24:37;;;;;;;8.00;7.00;;;39.70;55.20;;;;;;5032698;28;20396;-72
2022/08/17 11:27:12;;;;;;;6.93;6.33;;;40.30;50.60;;;;;;5034537;28;20505;-72
2022/08/17 11:30:00;;;;;;;7.23;6.63;;;39.80;49.70;;;;;;5034224;28;20445;-73
2022/08/17 11:32:51;;;;;;;7.67;6.90;;;39.00;50.20;;;;;;5034393;28;20517;-72
2022/08/17 11:35:19;;;;;;;9.93;9.03;;;38.20;50.70;;;;;;5034239;28;20390;-73
2022/08/17 11:38:07;;;;;;;7.40;6.70;;;36.80;51.60;;;;;;5034444;28;20493;-73
2022/08/17 11:40:47;;;;;;;9.77;7.97;;;35.90;52.80;;;;;;5034317;28;20399;-73
2022/08/17 11:43:42;;;;;;;8.80;7.97;;;34.80;56.40;;;;;;5033620;28;20787;-73
2022/08/17 11:46:10;;;;;;;10.20;8.20;;;34.20;57.70;;;;;;5032641;28;20418;-73
2022/08/17 11:52:00;;;;;;;7.03;6.40;;;33.50;59.30;;;;;;5034295;28;20503;-73
2022/08/17 11:54:40;;;;;;;7.50;6.70;;;33.40;65.00;;;;;;5033956;28;20394;-71
2022/08/17 11:57:24;;;;;;;9.73;8.23;;;33.60;63.00;;;;;;5034403;28;20425;-71
2022/08/17 12:00:05;;;;;;;8.90;8.00;;;34.10;62.70;;;;;;5033343;28;20433;-71
2022/08/17 12:02:34;;;;;;;9.37;8.47;;;34.60;63.70;;;;;;5034493;28;21312;-71
2022/08/17 12:05:26;;;;;;;8.83;8.03;;;35.10;58.60;;;;;;5032714;28;20411;-71
2022/08/17 12:08:06;;;;;;;8.60;7.20;;;35.40;58.90;;;;;;5034348;28;20514;-71
2022/08/17 12:10:34;;;;;;;10.60;7.53;;;36.10;58.90;;;;;;5034100;28;20409;-72
2022/08/17 12:13:11;;;;;;;8.03;7.23;;;37.00;56.30;;;;;;5033850;28;20446;-72
2022/08/17 12:15:43;;;;;;;10.73;9.13;;;37.70;54.30;;;;;;5033528;28;20394;-71
2022/08/17 12:18:32;;;;;;;7.73;7.03;;;37.90;52.40;;;;;;5033615;28;20390;-71
2022/08/17 12:21:20;;;;;;;7.67;6.97;;;37.90;51.70;;;;;;5033574;28;20391;-71
2022/08/17 12:24:05;;;;;;;9.10;7.70;;;38.00;52.50;;;;;;5033617;28;20390;-71
2022/08/17 12:26:34;;;;;;;8.30;7.40;;;37.90;52.30;;;;;;5027996;28;20777;-71
2022/08/17 12:29:03;;;;;;;7.93;7.17;;;38.60;52.20;;;;;;5032182;28;21017;-72
2022/08/17 12:31:34;;;;;;;7.70;7.03;;;39.50;51.20;;;;;;5033239;28;20458;-73
2022/08/17 12:34:02;;;;;;;9.00;8.23;;;40.30;50.30;;;;;;5033276;28;20402;-73
2022/08/17 12:36:29;;;;;;;7.83;7.23;;;41.30;47.30;;;;;;5033107;28;20804;-73
2022/08/17 12:39:04;;;;;;;7.30;6.70;;;42.50;45.60;;;;;;5033219;28;20787;-73
2022/08/17 12:41:29;;;;;;;8.00;7.40;;;42.70;44.60;;;;;;5033157;28;20426;-72
2022/08/17 12:44:02;;;;;;;8.97;7.80;;;42.40;43.00;;;;;;5033097;28;20468;-72
2022/08/17 12:46:32;;;;;;;10.00;8.60;;;41.10;43.30;;;;;;5032855;28;20187;-72
2022/08/17 12:49:18;;;;;;;8.87;8.07;;;39.70;44.30;;;;;;5033199;28;20454;-71
2022/08/17 12:51:45;;;;;;;10.63;9.60;;;38.10;46.50;;;;;;5032108;28;20446;-72
2022/08/17 12:54:26;;;;;;;9.40;8.40;;;37.00;48.50;;;;;;5033093;28;20445;-71
2022/08/17 12:56:52;;;;;;;9.83;8.37;;;35.90;50.40;;;;;;5032920;28;20406;-72
2022/08/17 12:59:20;;;;;;;9.43;8.43;;;35.30;53.30;;;;;;5031334;28;20464;-72
2022/08/17 13:01:46;;;;;;;7.97;7.20;;;34.90;53.30;;;;;;5032930;28;20195;-73
2022/08/17 13:04:14;;;;;;;9.37;6.90;;;34.30;54.20;;;;;;5032567;28;20402;-71
2022/08/17 13:06:49;;;;;;;9.63;7.13;;;33.70;56.40;;;;;;5032709;28;20798;-71
2022/08/17 13:09:23;;;;;;;10.03;8.30;;;33.60;58.60;;;;;;5032621;28;20532;-71
2022/08/17 13:11:52;;;;;;;8.87;7.97;;;33.90;59.10;;;;;;5033771;28;20417;-71
2022/08/17 13:14:18;;;;;;;8.10;7.40;;;34.70;58.50;;;;;;5033145;28;20406;-72
2022/08/17 13:16:51;;;;;;;9.50;8.43;;;36.10;56.70;;;;;;5033615;28;20431;-71
2022/08/17 13:19:20;;;;;;;8.50;7.37;;;37.10;53.70;;;;;;5031809;28;20410;-71
2022/08/17 13:21:50;;;;;;;9.10;8.37;;;37.80;52.50;;;;;;5033226;28;20996;-72
2022/08/17 13:24:22;;;;;;;6.43;5.90;;;38.70;51.40;;;;;;5032893;28;20388;-72
2022/08/17 13:27:02;;;;;;;7.33;6.73;;;39.60;48.80;;;;;;5033263;28;20895;-72
2022/08/17 13:29:32;;;;;;;8.40;7.57;;;40.10;48.30;;;;;;5033033;28;20450;-72
2022/08/17 13:32:06;;;;;;;8.23;7.50;;;40.80;47.00;;;;;;5031608;28;20437;-72
2022/08/17 13:34:43;;;;;;;7.97;7.27;;;41.40;46.10;;;;;;5031631;28;21120;-72
2022/08/17 13:37:29;;;;;;;8.50;7.60;;;41.70;44.10;;;;;;5032914;28;20402;-72
2022/08/17 13:40:20;;;;;;;8.40;7.60;;;41.80;44.30;;;;;;5032951;28;20381;-72
2022/08/17 13:42:51;;;;;;;9.73;8.60;;;41.30;43.80;;;;;;5032929;28;20513;-72
2022/08/17 13:45:29;;;;;;;7.83;7.13;;;40.30;44.00;;;;;;5032633;28;20452;-72
2022/08/17 13:48:08;;;;;;;8.00;7.30;;;39.90;46.10;;;;;;5033255;28;20402;-72